Time;durP1;ratioP1;P1;durP2;ratioP2;P2;SDS_P1;SDS_P2;PMS_P1;PMS_P2;Temp;Humidity;BMP_temperature;BMP_pressure;BME280_temperature;BME280_humidity;BME280_pressure;Samples;Min_cycle;Max_cycle;Signal;HPM_P1;HPM_P2
2021/01/12 00:01:41;;;;;;;22.77;15.70;;;;;;;0.33;82.87;100482.78;645084;221;23650;-76
2021/01/12 00:04:09;;;;;;;24.87;16.52;;;;;;;0.36;83.21;100481.35;639647;221;32629;-76
2021/01/12 00:06:37;;;;;;;22.70;16.17;;;;;;;0.37;83.05;100485.56;644292;221;32444;-76
2021/01/12 00:09:05;;;;;;;24.53;15.53;;;;;;;0.35;83.82;100484.81;638493;222;23677;-76
2021/01/12 00:11:33;;;;;;;23.55;15.93;;;;;;;0.30;84.01;100477.82;636127;222;32760;-76
2021/01/12 00:14:01;;;;;;;23.05;16.10;;;;;;;0.47;83.29;100468.05;651282;217;32603;-75
2021/01/12 00:16:28;;;;;;;24.80;15.60;;;;;;;0.40;83.51;100468.78;656778;217;23681;-76
2021/01/12 00:18:56;;;;;;;23.95;16.93;;;;;;;0.43;82.73;100454.59;655642;217;32574;-76
2021/01/12 00:21:27;;;;;;;21.87;13.90;;;;;;;0.15;84.16;100453.81;661329;217;23644;-75
2021/01/12 00:23:55;;;;;;;20.70;14.77;;;;;;;0.18;84.43;100461.78;652605;217;32831;-76
2021/01/12 00:26:23;;;;;;;22.20;15.00;;;;;;;0.16;84.78;100461.03;655248;217;24935;-76
2021/01/12 00:28:51;;;;;;;22.98;16.17;;;;;;;0.15;86.01;100456.82;646838;217;32565;-76
2021/01/12 00:31:18;;;;;;;22.37;15.83;;;;;;;0.25;85.64;100448.61;648250;217;32625;-76
2021/01/12 00:33:46;;;;;;;25.20;15.67;;;;;;;0.21;86.08;100448.39;649965;217;23706;-74
2021/01/12 00:36:14;;;;;;;23.35;15.75;;;;;;;0.32;85.92;100439.38;646722;217;32551;-75
2021/01/12 00:38:42;;;;;;;21.00;13.83;;;;;;;0.14;86.04;100433.41;646795;221;23739;-75
2021/01/12 00:41:10;;;;;;;21.07;15.18;;;;;;;0.13;87.15;100440.24;642228;219;32731;-75
2021/01/12 00:43:38;;;;;;;23.15;16.07;;;;;;;0.21;87.36;100446.28;639807;220;32723;-75
2021/01/12 00:46:08;;;;;;;23.70;14.73;;;;;;;0.15;88.13;100446.14;640942;221;23684;-74
2021/01/12 00:48:36;;;;;;;24.60;16.52;;;;;;;0.29;87.20;100435.25;642047;220;32746;-75
2021/01/12 00:51:04;;;;;;;22.95;16.55;;;;;;;0.34;86.81;100447.35;643475;221;32824;-74
2021/01/12 00:53:31;;;;;;;24.57;14.87;;;;;;;0.06;87.94;100445.73;642797;221;23681;-75
2021/01/12 00:56:00;;;;;;;24.18;17.07;;;;;;;0.09;87.71;100453.26;633721;221;32775;-75
2021/01/12 00:58:27;;;;;;;23.63;15.27;;;;;;;-0.04;88.34;100467.89;640953;220;23667;-75
2021/01/12 01:00:55;;;;;;;22.90;15.72;;;;;;;0.02;88.92;100471.08;633282;221;32751;-75
2021/01/12 01:03:24;;;;;;;22.87;16.07;;;;;;;0.12;88.39;100460.33;636708;221;32740;-75
2021/01/12 01:05:52;;;;;;;23.60;15.30;;;;;;;-0.01;88.00;100469.02;640308;222;23680;-75
2021/01/12 01:08:20;;;;;;;24.18;16.60;;;;;;;0.16;88.65;100473.36;631753;222;33071;-75
2021/01/12 01:10:48;;;;;;;24.67;17.30;;;;;;;0.20;88.44;100466.37;630511;221;32757;-74
2021/01/12 01:13:16;;;;;;;22.73;15.63;;;;;;;-0.03;88.80;100484.88;641875;222;23679;-75
2021/01/12 01:15:44;;;;;;;24.92;18.00;;;;;;;-0.09;89.55;100485.18;635539;222;32828;-74
2021/01/12 01:18:12;;;;;;;22.93;16.05;;;;;;;-0.05;90.47;100481.58;636320;222;32829;-74
2021/01/12 01:20:40;;;;;;;22.33;14.73;;;;;;;-0.12;90.25;100466.16;639324;222;23656;-74
2021/01/12 01:23:08;;;;;;;24.92;16.82;;;;;;;-0.10;90.55;100480.97;648007;217;32637;-75
2021/01/12 01:25:36;;;;;;;23.18;16.73;;;;;;;0.07;89.96;100473.78;649689;217;32631;-74
2021/01/12 01:28:04;;;;;;;21.27;15.70;;;;;;;0.18;88.63;100464.34;654717;217;32582;-74
2021/01/12 01:30:32;;;;;;;22.10;15.30;;;;;;;-0.03;89.39;100467.44;654307;217;27860;-74
2021/01/12 01:32:59;;;;;;;23.40;16.93;;;;;;;0.23;89.75;100461.09;645090;217;32609;-74
2021/01/12 01:35:27;;;;;;;24.40;14.90;;;;;;;0.13;89.50;100458.59;651898;217;23974;-75
2021/01/12 01:37:55;;;;;;;24.27;17.05;;;;;;;0.23;90.20;100448.31;645488;217;32627;-75
2021/01/12 01:40:23;;;;;;;21.83;14.67;;;;;;;0.03;91.10;100455.67;654237;217;23653;-75
2021/01/12 01:42:51;;;;;;;25.08;16.35;;;;;;;0.26;90.59;100449.44;650975;217;32635;-75
2021/01/12 01:45:19;;;;;;;25.40;15.83;;;;;;;0.11;91.25;100440.77;656184;217;23666;-75
2021/01/12 01:47:47;;;;;;;25.95;17.48;;;;;;;0.26;90.14;100432.81;649875;217;32552;-75
2021/01/12 01:50:15;;;;;;;25.25;16.60;;;;;;;0.19;90.30;100417.41;635007;217;33069;-75
2021/01/12 01:52:44;;;;;;;25.03;15.87;;;;;;;0.16;90.71;100412.45;653723;217;23630;-75
2021/01/12 01:55:14;;;;;;;26.45;16.20;;;;;;;0.22;90.17;100408.30;651071;217;32566;-74
2021/01/12 01:57:42;;;;;;;22.73;14.70;;;;;;;0.19;91.66;100404.62;654798;217;23651;-74
2021/01/12 02:00:10;;;;;;;25.80;16.93;;;;;;;0.23;90.69;100403.11;654184;217;32571;-74
2021/01/12 02:02:39;;;;;;;21.63;14.87;;;;;;;0.16;90.64;100404.78;654257;217;23643;-74
2021/01/12 02:05:09;;;;;;;24.20;16.95;;;;;;;0.12;91.28;100403.25;648200;217;43554;-74
2021/01/12 02:07:38;;;;;;;23.50;14.70;;;;;;;0.12;91.22;100402.80;656372;217;23646;-76
2021/01/12 02:10:06;;;;;;;22.40;15.95;;;;;;;0.05;91.14;100395.52;650898;217;32588;-76
2021/01/12 02:12:35;;;;;;;22.43;16.07;;;;;;;0.11;90.65;100392.65;650551;217;23654;-76
2021/01/12 02:15:04;;;;;;;23.77;16.55;;;;;;;0.31;90.80;100391.23;650531;217;32649;-76
2021/01/12 02:17:32;;;;;;;21.30;14.60;;;;;;;0.08;90.46;100383.85;659056;217;25062;-74
2021/01/12 02:20:00;;;;;;;23.73;16.45;;;;;;;0.06;91.27;100388.22;650156;217;32830;-76
2021/01/12 02:22:28;;;;;;;24.87;17.15;;;;;;;0.34;90.96;100385.14;650812;217;33034;-76
2021/01/12 02:24:55;;;;;;;23.25;16.45;;;;;;;0.31;89.96;100370.78;651013;217;32899;-76
2021/01/12 02:27:23;;;;;;;21.60;14.57;;;;;;;0.23;89.79;100371.14;652221;217;23777;-76
2021/01/12 02:29:51;;;;;;;22.82;16.17;;;;;;;0.05;90.12;100363.11;643047;217;32557;-74
2021/01/12 02:32:19;;;;;;;25.50;16.80;;;;;;;0.08;89.55;100361.67;643324;217;43275;-77
2021/01/12 02:34:47;;;;;;;22.60;14.43;;;;;;;-0.02;89.65;100360.45;654890;217;23657;-76
2021/01/12 02:37:15;;;;;;;22.45;16.10;;;;;;;0.10;89.27;100355.20;643069;217;32556;-74
2021/01/12 02:39:43;;;;;;;23.02;15.80;;;;;;;0.16;89.12;100348.52;648247;217;32564;-74
2021/01/12 02:42:15;;;;;;;24.80;16.13;;;;;;;-0.01;89.08;100351.88;648692;217;23686;-74
2021/01/12 02:44:43;;;;;;;21.37;15.05;;;;;;;-0.04;88.28;100347.75;645451;217;32622;-76
2021/01/12 02:47:11;;;;;;;24.33;15.80;;;;;;;0.11;88.55;100342.34;652051;217;34335;-76
2021/01/12 02:49:38;;;;;;;22.52;16.55;;;;;;;0.02;87.60;100325.36;645381;217;32621;-76
2021/01/12 02:52:06;;;;;;;21.68;15.25;;;;;;;0.12;87.85;100325.27;645742;217;32658;-76
2021/01/12 02:54:34;;;;;;;21.53;14.17;;;;;;;-0.02;87.76;100322.11;659086;217;23640;-76
2021/01/12 02:57:02;;;;;;;24.15;15.95;;;;;;;0.07;87.52;100328.06;652242;217;32641;-76
2021/01/12 02:59:30;;;;;;;21.35;15.20;;;;;;;0.15;87.59;100318.30;648731;217;32925;-74
2021/01/12 03:01:58;;;;;;;23.20;13.83;;;;;;;0.12;87.34;100318.87;656370;217;23643;-74
2021/01/12 03:04:27;;;;;;;19.73;14.73;;;;;;;0.09;86.18;100312.64;649294;217;32573;-74
2021/01/12 03:06:55;;;;;;;20.83;14.73;;;;;;;0.15;86.70;100304.23;644625;217;32618;-76
2021/01/12 03:09:23;;;;;;;23.03;14.70;;;;;;;0.18;86.17;100308.36;658570;216;24751;-76
2021/01/12 03:11:52;;;;;;;21.05;14.73;;;;;;;0.13;85.99;100302.63;655320;217;32536;-76
2021/01/12 03:14:21;;;;;;;20.85;13.90;;;;;;;0.26;86.44;100292.16;647367;217;32533;-76
2021/01/12 03:16:51;;;;;;;21.23;13.23;;;;;;;0.22;86.58;100286.83;654814;217;23658;-76
2021/01/12 03:19:16;;;;;;;22.10;13.95;;;;;;;0.31;85.79;100278.70;655599;217;32587;-76
2021/01/12 03:21:44;;;;;;;20.55;14.60;;;;;;;0.43;85.86;100266.56;649937;217;32623;-76
2021/01/12 03:24:12;;;;;;;20.05;14.47;;;;;;;0.82;84.80;100258.95;651370;217;32618;-76
2021/01/12 03:26:40;;;;;;;22.33;13.60;;;;;;;0.57;84.59;100245.38;652940;217;23651;-76
2021/01/12 03:29:08;;;;;;;21.10;13.93;;;;;;;0.60;84.57;100249.05;654618;217;32658;-74
2021/01/12 03:31:36;;;;;;;21.60;14.13;;;;;;;0.54;84.22;100241.22;661295;216;23654;-74
2021/01/12 03:34:04;;;;;;;22.93;15.00;;;;;;;0.65;84.63;100239.84;650610;217;32585;-74
2021/01/12 03:36:32;;;;;;;20.40;13.57;;;;;;;0.58;84.39;100232.95;659017;217;23652;-74
2021/01/12 03:39:01;;;;;;;20.50;14.38;;;;;;;0.55;84.34;100222.41;646695;217;32607;-74
2021/01/12 03:41:29;;;;;;;20.50;13.77;;;;;;;0.43;85.27;100221.80;656327;217;24760;-74
2021/01/12 03:43:56;;;;;;;20.00;13.90;;;;;;;0.48;85.66;100227.49;633761;222;32826;-76
2021/01/12 03:46:24;;;;;;;21.20;13.60;;;;;;;0.57;85.09;100216.78;640660;220;23668;-76
2021/01/12 03:48:52;;;;;;;23.62;13.72;;;;;;;0.98;84.59;100207.28;640643;216;32582;-75
2021/01/12 03:51:20;;;;;;;20.20;13.10;;;;;;;0.51;86.06;100201.73;647127;221;24959;-75
2021/01/12 03:53:48;;;;;;;21.48;14.90;;;;;;;0.43;86.68;100198.78;642339;220;33074;-75
2021/01/12 03:56:16;;;;;;;22.27;15.30;;;;;;;0.30;87.88;100227.18;637988;222;32722;-74
2021/01/12 03:58:44;;;;;;;24.30;14.80;;;;;;;0.20;88.84;100232.39;661237;217;25835;-75
2021/01/12 04:01:12;;;;;;;21.48;15.40;;;;;;;0.34;89.27;100232.50;640227;220;33020;-75
2021/01/12 04:03:40;;;;;;;21.10;14.10;;;;;;;0.38;89.96;100233.16;646612;220;23670;-75
2021/01/12 04:06:11;;;;;;;23.05;15.15;;;;;;;0.33;89.50;100225.73;637071;221;32753;-75
2021/01/12 04:08:39;;;;;;;20.12;14.78;;;;;;;0.42;88.83;100220.13;635178;222;43532;-75
2021/01/12 04:11:07;;;;;;;21.13;13.73;;;;;;;0.26;90.78;100223.11;647006;221;23661;-75
2021/01/12 04:13:35;;;;;;;20.57;14.80;;;;;;;0.35;91.33;100206.02;640782;222;32783;-74
2021/01/12 04:16:04;;;;;;;20.97;14.47;;;;;;;0.36;91.07;100210.22;642696;219;23666;-75
2021/01/12 04:18:32;;;;;;;22.70;15.70;;;;;;;0.17;92.01;100201.88;642906;220;32790;-75
2021/01/12 04:21:01;;;;;;;23.40;16.40;;;;;;;0.24;91.99;100189.13;623993;224;32887;-75
2021/01/12 04:23:29;;;;;;;22.25;15.80;;;;;;;0.08;92.62;100189.55;642601;221;32626;-75
2021/01/12 04:25:56;;;;;;;21.97;15.80;;;;;;;0.17;93.30;100181.41;638953;220;32914;-74
2021/01/12 04:28:24;;;;;;;23.55;16.87;;;;;;;0.16;93.72;100180.59;639236;221;32941;-74
2021/01/12 04:30:52;;;;;;;21.97;14.87;;;;;;;0.05;94.11;100170.55;648147;221;23642;-74
2021/01/12 04:33:20;;;;;;;27.35;16.90;;;;;;;0.32;94.80;100170.83;638029;221;33005;-74
2021/01/12 04:35:48;;;;;;;24.07;17.15;;;;;;;0.21;94.82;100167.55;645978;217;32891;-76
2021/01/12 04:38:16;;;;;;;23.10;15.27;;;;;;;0.06;96.33;100169.64;648906;217;23681;-76
2021/01/12 04:40:44;;;;;;;26.27;17.90;;;;;;;0.19;96.69;100158.69;649685;217;32619;-75
2021/01/12 04:43:12;;;;;;;22.70;15.60;;;;;;;0.17;96.92;100159.69;654091;217;24283;-74
2021/01/12 04:45:40;;;;;;;24.50;16.82;;;;;;;0.29;96.63;100159.04;650878;217;32884;-74
2021/01/12 04:48:09;;;;;;;24.60;15.20;;;;;;;0.14;98.26;100155.98;661046;217;23675;-74
2021/01/12 04:50:38;;;;;;;26.30;16.70;;;;;;;0.09;98.56;100154.95;630342;221;33100;-74
2021/01/12 04:53:05;;;;;;;28.17;16.50;;;;;;;0.05;99.87;100142.42;638713;222;23804;-74
2021/01/12 04:55:33;;;;;;;26.60;17.48;;;;;;;0.16;99.40;100139.69;644905;218;32557;-73
2021/01/12 04:58:01;;;;;;;27.70;18.85;;;;;;;-0.09;100.00;100128.63;649423;217;32632;-74
2021/01/12 05:00:30;;;;;;;28.50;19.10;;;;;;;0.05;100.00;100127.09;646174;218;32555;-76
2021/01/12 05:03:00;;;;;;;25.37;15.50;;;;;;;-0.18;100.00;100126.55;640289;221;23682;-74
2021/01/12 05:05:30;;;;;;;29.18;18.98;;;;;;;0.01;100.00;100121.31;646897;217;32884;-76
2021/01/12 05:08:01;;;;;;;29.37;17.00;;;;;;;0.02;100.00;100119.13;646012;221;23685;-76
2021/01/12 05:10:30;;;;;;;30.55;19.23;;;;;;;-0.05;100.00;100119.89;635690;221;32786;-76
2021/01/12 05:12:58;;;;;;;29.67;17.87;;;;;;;-0.07;100.00;100110.66;639896;222;23674;-76
2021/01/12 05:15:27;;;;;;;29.42;18.90;;;;;;;-0.05;100.00;100106.28;633482;222;32777;-76
2021/01/12 05:17:56;;;;;;;31.70;19.92;;;;;;;0.09;100.00;100104.28;635503;222;32731;-73
2021/01/12 05:20:25;;;;;;;28.23;16.70;;;;;;;0.04;100.00;100104.53;645210;222;23698;-73
2021/01/12 05:22:56;;;;;;;28.07;18.70;;;;;;;-0.04;100.00;100103.64;650617;217;32564;-73
2021/01/12 05:25:33;;;;;;;28.53;17.63;;;;;;;-0.08;100.00;100102.17;648139;218;23656;-72
2021/01/12 05:27:53;;;;;;;31.87;18.70;;;;;;;-0.09;100.00;100095.41;630977;221;32783;-75
2021/01/12 05:30:25;;;;;;;31.10;20.10;;;;;;;0.02;100.00;100090.19;644013;218;32598;-75
2021/01/12 05:32:53;;;;;;;27.40;16.33;;;;;;;-0.08;100.00;100082.17;635949;221;24789;-73
2021/01/12 05:35:25;;;;;;;31.85;19.65;;;;;;;-0.05;100.00;100090.50;634566;221;32764;-75
2021/01/12 05:37:49;;;;;;;30.80;17.33;;;;;;;-0.11;100.00;100084.45;646023;220;23683;-75
2021/01/12 05:40:17;;;;;;;32.80;20.75;;;;;;;-0.25;100.00;100077.13;635953;221;32715;-75
2021/01/12 05:42:45;;;;;;;36.20;20.60;;;;;;;-0.22;100.00;100080.80;639766;221;23675;-75
2021/01/12 05:45:13;;;;;;;50.63;30.75;;;;;;;-0.23;100.00;100078.70;640411;221;32812;-72
2021/01/12 05:47:41;;;;;;;58.52;32.38;;;;;;;-0.13;100.00;100070.92;634132;221;32710;-73
2021/01/12 05:50:15;;;;;;;40.00;21.37;;;;;;;-0.11;100.00;100073.40;647291;221;23646;-75
2021/01/12 05:52:38;;;;;;;52.00;35.83;;;;;;;-0.07;100.00;100058.27;638858;221;32651;-75
2021/01/12 05:55:07;;;;;;;59.03;36.90;;;;;;;0.01;100.00;100050.20;641882;220;23717;-76
2021/01/12 05:57:35;;;;;;;54.43;36.33;;;;;;;0.08;100.00;100047.67;640942;220;35052;-73
2021/01/12 06:00:03;;;;;;;34.35;24.20;;;;;;;0.19;100.00;100033.41;640697;221;32790;-77
2021/01/12 06:02:31;;;;;;;32.90;18.20;;;;;;;0.14;100.00;100031.98;642053;220;23715;-76
2021/01/12 06:05:00;;;;;;;33.80;20.92;;;;;;;0.18;100.00;100040.70;636312;222;33324;-76
2021/01/12 06:07:28;;;;;;;33.50;20.52;;;;;;;0.21;100.00;100034.59;636656;221;32775;-76
2021/01/12 06:09:56;;;;;;;30.33;17.77;;;;;;;0.12;100.00;100016.73;635002;221;23662;-76
2021/01/12 06:12:25;;;;;;;31.07;19.75;;;;;;;0.30;100.00;100028.98;638574;222;32728;-76
2021/01/12 06:14:53;;;;;;;35.23;22.20;;;;;;;0.32;100.00;100017.39;641155;222;23669;-77
2021/01/12 06:17:21;;;;;;;31.57;22.00;;;;;;;0.10;100.00;100011.34;652066;217;32657;-74
2021/01/12 06:19:49;;;;;;;35.17;22.17;;;;;;;0.15;100.00;100021.70;649855;217;32939;-74
2021/01/12 06:22:19;;;;;;;38.97;21.30;;;;;;;0.03;100.00;100026.20;637821;221;23725;-75
2021/01/12 06:24:51;;;;;;;38.70;23.67;;;;;;;-0.02;100.00;100024.33;638846;222;32874;-75
2021/01/12 06:27:18;;;;;;;35.45;22.40;;;;;;;0.17;100.00;100023.72;653435;217;32602;-74
2021/01/12 06:29:46;;;;;;;36.83;19.70;;;;;;;0.10;100.00;100017.27;651056;218;23648;-74
2021/01/12 06:32:16;;;;;;;34.60;22.17;;;;;;;0.08;100.00;100006.31;644139;217;32648;-74
2021/01/12 06:34:44;;;;;;;34.33;18.73;;;;;;;0.10;100.00;100016.45;653660;218;23647;-74
2021/01/12 06:37:13;;;;;;;36.60;21.60;;;;;;;0.10;100.00;100013.89;638704;222;32723;-75
2021/01/12 06:39:41;;;;;;;36.83;22.07;;;;;;;0.13;100.00;100017.09;646545;217;32606;-76
2021/01/12 06:42:10;;;;;;;33.97;19.07;;;;;;;0.11;100.00;100008.69;644131;221;23670;-77
2021/01/12 06:44:38;;;;;;;37.67;21.93;;;;;;;0.16;100.00;100016.13;640524;220;32803;-77
2021/01/12 06:47:06;;;;;;;33.92;21.45;;;;;;;0.24;100.00;100015.23;642559;221;32755;-76
2021/01/12 06:49:34;;;;;;;36.17;20.33;;;;;;;0.21;100.00;100014.14;645181;221;23685;-74
2021/01/12 06:52:02;;;;;;;40.70;23.05;;;;;;;0.30;100.00;100005.97;635272;221;32809;-75
2021/01/12 06:54:34;;;;;;;32.45;22.27;;;;;;;0.19;100.00;100004.00;640275;221;43437;-74
2021/01/12 06:57:02;;;;;;;34.70;20.30;;;;;;;0.28;100.00;100009.89;639993;221;23672;-76
2021/01/12 06:59:35;;;;;;;39.05;22.60;;;;;;;0.26;100.00;100012.96;645392;217;32695;-76
2021/01/12 07:02:07;;;;;;;37.00;20.50;;;;;;;0.29;100.00;99997.92;646765;221;23678;-76
2021/01/12 07:04:35;;;;;;;37.60;22.32;;;;;;;0.28;100.00;99997.53;644745;220;32874;-75
2021/01/12 07:07:03;;;;;;;37.93;22.62;;;;;;;0.28;100.00;99994.97;642539;221;33037;-76
2021/01/12 07:09:31;;;;;;;41.00;21.30;;;;;;;0.29;100.00;100000.48;647048;221;26849;-74
2021/01/12 07:12:07;;;;;;;38.70;23.45;;;;;;;0.22;100.00;99990.21;634968;221;32751;-76
2021/01/12 07:14:54;;;;;;;43.78;24.75;;;;;;;0.32;100.00;99987.52;639221;220;32709;-77
2021/01/12 07:17:26;;;;;;;39.60;21.70;;;;;;;0.33;100.00;99985.33;635972;222;23660;-75
2021/01/12 07:20:03;;;;;;;37.88;21.70;;;;;;;0.40;100.00;99988.35;632356;222;32704;-76
2021/01/12 07:22:33;;;;;;;38.03;19.47;;;;;;;0.41;100.00;99986.98;638298;222;23706;-76
2021/01/12 07:25:01;;;;;;;37.00;21.65;;;;;;;0.58;100.00;99991.17;635183;222;32793;-76
2021/01/12 07:27:29;;;;;;;39.92;21.90;;;;;;;0.58;100.00;99990.72;648883;217;32611;-77
2021/01/12 07:29:57;;;;;;;37.73;18.03;;;;;;;0.59;100.00;99976.19;642621;222;23670;-77
2021/01/12 07:32:27;;;;;;;36.98;20.77;;;;;;;0.79;100.00;99989.10;633533;222;32770;-76
2021/01/12 07:34:56;;;;;;;35.13;19.67;;;;;;;0.73;100.00;99972.84;655636;217;25816;-77
2021/01/12 07:37:28;;;;;;;38.53;21.50;;;;;;;0.72;100.00;99980.15;644374;217;32663;-76
2021/01/12 07:39:56;;;;;;;35.70;18.50;;;;;;;0.62;100.00;99979.02;655098;217;23672;-76
2021/01/12 07:42:24;;;;;;;35.75;20.50;;;;;;;0.68;100.00;99967.14;651600;217;32587;-76
2021/01/12 07:44:52;;;;;;;33.83;17.63;;;;;;;0.71;100.00;99972.92;650438;217;23650;-75
2021/01/12 07:47:20;;;;;;;34.65;19.55;;;;;;;0.71;100.00;99966.53;650644;217;32573;-76
2021/01/12 07:49:50;;;;;;;36.17;20.57;;;;;;;0.88;100.00;99961.70;643757;217;32587;-76
2021/01/12 07:52:19;;;;;;;31.63;15.93;;;;;;;0.78;100.00;99953.73;655967;216;23649;-75
2021/01/12 07:54:47;;;;;;;31.53;18.87;;;;;;;0.77;100.00;99950.80;644420;217;32576;-74
2021/01/12 07:57:15;;;;;;;30.53;15.43;;;;;;;0.72;100.00;99952.00;653402;217;29031;-74
2021/01/12 07:59:44;;;;;;;32.45;18.07;;;;;;;0.81;100.00;99936.08;647581;217;32588;-76
2021/01/12 08:02:12;;;;;;;26.03;15.03;;;;;;;0.85;100.00;99947.81;654572;217;23688;-76
2021/01/12 08:04:40;;;;;;;27.80;16.50;;;;;;;0.83;100.00;99944.48;642828;217;32512;-76
2021/01/12 08:07:08;;;;;;;31.33;18.27;;;;;;;0.98;100.00;99937.19;649751;217;32533;-77
2021/01/12 08:09:37;;;;;;;26.37;14.83;;;;;;;0.91;100.00;99939.75;654575;217;23697;-75
2021/01/12 08:12:06;;;;;;;26.65;16.10;;;;;;;0.96;100.00;99936.91;643339;217;32786;-74
2021/01/12 08:14:34;;;;;;;26.40;16.40;;;;;;;1.02;100.00;99935.28;637317;221;32950;-75
2021/01/12 08:17:05;;;;;;;24.73;12.70;;;;;;;1.02;100.00;99936.11;639212;221;23683;-76
2021/01/12 08:19:31;;;;;;;25.97;15.30;;;;;;;1.08;100.00;99942.59;631989;221;33700;-75
2021/01/12 08:22:00;;;;;;;21.43;14.63;;;;;;;0.84;100.00;99938.45;652652;219;24755;-74
2021/01/12 08:24:30;;;;;;;25.45;15.85;;;;;;;0.92;100.00;99941.86;633226;221;33124;-75
2021/01/12 08:26:56;;;;;;;22.40;13.73;;;;;;;0.98;100.00;99929.96;628910;225;23718;-76
2021/01/12 08:29:24;;;;;;;25.37;15.05;;;;;;;1.08;100.00;99927.23;649373;217;32546;-77
2021/01/12 08:31:59;;;;;;;25.37;16.00;;;;;;;1.02;100.00;99926.33;639885;221;32688;-76
2021/01/12 08:34:27;;;;;;;21.13;11.83;;;;;;;0.90;100.00;99920.20;654669;217;24763;-77
2021/01/12 08:36:55;;;;;;;22.10;14.23;;;;;;;1.09;100.00;99927.13;645257;218;32843;-76
2021/01/12 08:39:24;;;;;;;20.53;11.93;;;;;;;0.96;100.00;99921.09;654692;217;23649;-77
2021/01/12 08:41:52;;;;;;;23.80;14.13;;;;;;;1.05;100.00;99925.67;633862;222;33093;-76
2021/01/12 08:44:20;;;;;;;22.05;14.23;;;;;;;1.09;100.00;99928.41;639571;221;32722;-75
2021/01/12 08:46:48;;;;;;;20.50;11.37;;;;;;;0.99;100.00;99917.09;640705;222;23667;-74
2021/01/12 08:49:16;;;;;;;22.10;13.75;;;;;;;1.13;100.00;99920.94;637043;221;33113;-75
2021/01/12 08:51:44;;;;;;;20.37;13.10;;;;;;;1.20;100.00;99927.77;632139;221;32587;-75
2021/01/12 08:54:16;;;;;;;19.80;10.10;;;;;;;1.00;100.00;99915.36;641919;222;23707;-74
2021/01/12 08:56:44;;;;;;;20.17;12.55;;;;;;;1.21;100.00;99921.73;639735;222;32842;-74
2021/01/12 08:59:12;;;;;;;15.27;10.37;;;;;;;1.16;100.00;99920.73;641129;222;23680;-75
2021/01/12 09:01:42;;;;;;;18.23;12.10;;;;;;;1.17;100.00;99924.13;632177;221;32915;-75
2021/01/12 09:04:08;;;;;;;18.53;10.00;;;;;;;1.11;100.00;99929.14;646286;220;25837;-76
2021/01/12 09:06:36;;;;;;;16.20;11.55;;;;;;;1.14;100.00;99937.94;627020;226;32936;-75
2021/01/12 09:09:08;;;;;;;18.70;12.20;;;;;;;1.11;100.00;99934.72;642901;221;43546;-75
2021/01/12 09:11:40;;;;;;;12.80;9.77;;;;;;;0.91;100.00;99933.81;644085;221;24967;-76
2021/01/12 09:14:08;;;;;;;16.27;10.70;;;;;;;1.01;100.00;99942.14;637827;220;32746;-76
2021/01/12 09:16:36;;;;;;;13.87;8.67;;;;;;;1.07;100.00;99937.92;641504;222;24809;-77
2021/01/12 09:19:13;;;;;;;14.78;9.93;;;;;;;1.30;100.00;99930.15;633050;221;32755;-76
2021/01/12 09:21:41;;;;;;;14.90;9.40;;;;;;;0.94;100.00;99935.73;646429;221;23680;-75
2021/01/12 09:24:10;;;;;;;16.12;10.45;;;;;;;1.23;100.00;99934.44;627419;226;33002;-77
2021/01/12 09:26:38;;;;;;;14.27;8.07;;;;;;;1.14;100.00;99921.75;642298;221;23655;-75
2021/01/12 09:29:06;;;;;;;14.53;10.60;;;;;;;1.02;100.00;99930.98;636487;221;32889;-75
2021/01/12 09:31:34;;;;;;;14.30;8.90;;;;;;;1.14;100.00;99927.70;637550;221;24967;-75
2021/01/12 09:34:02;;;;;;;12.93;9.00;;;;;;;1.31;100.00;99925.84;631113;221;32752;-76
2021/01/12 09:36:32;;;;;;;9.20;6.80;;;;;;;1.06;100.00;99918.36;636388;221;23729;-75
2021/01/12 09:39:00;;;;;;;11.67;8.60;;;;;;;1.10;100.00;99922.38;637583;222;32672;-76
2021/01/12 09:41:28;;;;;;;12.55;8.80;;;;;;;1.26;100.00;99915.86;632054;222;43439;-75
2021/01/12 09:43:56;;;;;;;8.83;6.70;;;;;;;1.03;100.00;99915.17;639371;222;23708;-76
2021/01/12 09:46:24;;;;;;;12.35;8.28;;;;;;;1.14;100.00;99922.58;640270;222;32710;-76
2021/01/12 09:48:53;;;;;;;11.27;7.30;;;;;;;1.09;100.00;99913.51;643279;221;24056;-76
2021/01/12 09:51:20;;;;;;;8.98;7.22;;;;;;;1.04;100.00;99912.97;634566;222;32703;-76
2021/01/12 09:53:48;;;;;;;9.65;7.53;;;;;;;1.12;100.00;99919.72;639794;221;32700;-78
2021/01/12 09:56:16;;;;;;;9.10;6.90;;;;;;;0.95;100.00;99916.89;635603;222;24761;-76
2021/01/12 09:58:44;;;;;;;7.87;5.60;;;;;;;1.04;100.00;99918.91;637479;222;24954;-76
2021/01/12 10:01:12;;;;;;;8.50;6.90;;;;;;;1.04;100.00;99922.75;638250;222;32665;-77
2021/01/12 10:03:40;;;;;;;7.57;5.33;;;;;;;1.02;100.00;99916.91;649360;218;23667;-77
2021/01/12 10:06:08;;;;;;;10.20;6.60;;;;;;;1.06;100.00;99918.81;629912;222;32716;-77
2021/01/12 10:08:38;;;;;;;7.43;5.57;;;;;;;1.00;100.00;99918.73;646107;222;23712;-77
2021/01/12 10:11:04;;;;;;;7.75;6.25;;;;;;;1.08;100.00;99910.13;633842;222;32685;-77
2021/01/12 10:13:32;;;;;;;7.90;5.80;;;;;;;1.01;100.00;99911.88;646389;220;23675;-75
2021/01/12 10:16:00;;;;;;;7.08;5.78;;;;;;;1.17;100.00;99907.02;636893;221;32766;-75
2021/01/12 10:18:28;;;;;;;6.90;5.53;;;;;;;1.11;100.00;99899.69;635755;220;43181;-75
2021/01/12 10:20:56;;;;;;;5.10;4.40;;;;;;;1.01;100.00;99897.34;647799;221;25813;-76
2021/01/12 10:23:24;;;;;;;7.53;5.58;;;;;;;1.34;100.00;99894.45;628495;225;32816;-77
2021/01/12 10:25:53;;;;;;;7.03;4.87;;;;;;;1.10;100.00;99890.82;639230;221;23700;-75
2021/01/12 10:28:23;;;;;;;7.83;5.90;;;;;;;1.17;100.00;99894.67;631993;221;32683;-75
2021/01/12 10:30:53;;;;;;;6.72;5.47;;;;;;;1.09;100.00;99891.28;641248;221;32708;-76
2021/01/12 10:33:20;;;;;;;7.60;4.97;;;;;;;1.27;100.00;99884.66;660071;217;25782;-77
2021/01/12 10:36:06;;;;;;;5.10;4.10;;;;;;;1.11;100.00;99888.16;658069;217;30735;-76
2021/01/12 10:38:33;;;;;;;6.22;5.08;;;;;;;1.44;100.00;99866.53;630056;220;32882;-76
2021/01/12 10:41:01;;;;;;;6.07;5.10;;;;;;;1.38;100.00;99865.63;628252;226;23708;-77
2021/01/12 10:43:29;;;;;;;5.50;4.50;;;;;;;1.33;100.00;99863.36;645744;220;32718;-77
2021/01/12 10:45:57;;;;;;;5.37;4.73;;;;;;;1.32;100.00;99854.03;648756;220;24734;-77
2021/01/12 10:48:25;;;;;;;5.10;4.40;;;;;;;1.48;100.00;99859.02;639609;220;32837;-77
2021/01/12 10:50:53;;;;;;;4.73;3.70;;;;;;;1.67;100.00;99850.52;627920;225;23704;-77
2021/01/12 10:53:21;;;;;;;4.50;4.05;;;;;;;1.54;100.00;99839.86;644547;220;32708;-78
2021/01/12 10:55:49;;;;;;;3.30;3.00;;;;;;;1.64;100.00;99847.33;649463;221;27258;-76
2021/01/12 10:58:17;;;;;;;5.10;3.98;;;;;;;1.42;100.00;99834.61;630808;225;32851;-77
2021/01/12 11:00:46;;;;;;;5.37;3.70;;;;;;;1.58;100.00;99826.77;637422;225;23699;-77
2021/01/12 11:03:14;;;;;;;4.20;3.80;;;;;;;1.74;100.00;99822.77;632492;225;32940;-77
2021/01/12 11:05:42;;;;;;;3.20;2.90;;;;;;;1.65;100.00;99825.91;644130;222;23698;-75
2021/01/12 11:08:10;;;;;;;4.70;3.67;;;;;;;1.53;100.00;99818.53;630103;223;33088;-75
2021/01/12 11:10:38;;;;;;;3.83;3.27;;;;;;;1.41;100.00;99820.16;640332;221;23732;-76
2021/01/12 11:13:06;;;;;;;3.60;3.30;;;;;;;1.41;100.00;99812.94;626979;225;32857;-76
2021/01/12 11:15:39;;;;;;;3.27;2.97;;;;;;;1.42;100.00;99805.61;633196;225;23719;-76
2021/01/12 11:18:03;;;;;;;3.50;3.20;;;;;;;1.53;100.00;99798.03;628900;225;32871;-76
2021/01/12 11:20:33;;;;;;;3.33;2.90;;;;;;;1.53;100.00;99796.76;628100;225;23755;-76
2021/01/12 11:23:01;;;;;;;3.62;3.20;;;;;;;1.64;100.00;99794.80;632936;225;32856;-77